sensor_id;sensor_type;location;lat;lon;timestamp;pressure;altitude;pressure_sealevel;temperature;humidity
72560;BME280;62987;52.382;9.752;2023-07-29T00:01:49;100072.38;;;18.95;100.00
72560;BME280;62987;52.382;9.752;2023-07-29T00:04:18;100054.72;;;18.81;100.00
72560;BME280;62987;52.382;9.752;2023-07-29T00:06:46;100066.69;;;18.88;100.00
72560;BME280;62987;52.382;9.752;2023-07-29T00:09:14;100058.25;;;18.82;100.00
72560;BME280;62987;52.382;9.752;2023-07-29T00:11:44;100066.09;;;18.85;100.00
72560;BME280;62987;52.382;9.752;2023-07-29T00:14:12;100060.84;;;18.83;100.00
72560;BME280;62987;52.382;9.752;2023-07-29T00:16:40;100067.22;;;18.82;100.00
72560;BME280;62987;52.382;9.752;2023-07-29T00:19:09;100059.53;;;18.77;100.00
72560;BME280;62987;52.382;9.752;2023-07-29T00:21:37;100055.66;;;18.70;100.00
72560;BME280;62987;52.382;9.752;2023-07-29T00:24:05;100069.78;;;18.84;100.00
72560;BME280;62987;52.382;9.752;2023-07-29T00:26:33;100081.81;;;18.80;100.00
72560;BME280;62987;52.382;9.752;2023-07-29T00:29:04;100082.81;;;18.79;100.00
72560;BME280;62987;52.382;9.752;2023-07-29T00:31:32;100074.84;;;18.77;100.00
72560;BME280;62987;52.382;9.752;2023-07-29T00:34:00;100071.88;;;18.80;100.00
72560;BME280;62987;52.382;9.752;2023-07-29T00:36:28;100070.31;;;18.77;100.00
72560;BME280;62987;52.382;9.752;2023-07-29T00:38:56;100056.91;;;18.66;100.00
72560;BME280;62987;52.382;9.752;2023-07-29T00:41:25;100057.63;;;18.68;100.00
72560;BME280;62987;52.382;9.752;2023-07-29T00:43:53;100061.28;;;18.67;100.00
72560;BME280;62987;52.382;9.752;2023-07-29T00:46:24;100067.69;;;18.66;100.00
72560;BME280;62987;52.382;9.752;2023-07-29T00:48:52;100061.25;;;18.58;100.00
72560;BME280;62987;52.382;9.752;2023-07-29T00:51:22;100052.69;;;18.53;100.00
72560;BME280;62987;52.382;9.752;2023-07-29T00:53:50;100042.09;;;18.40;100.00
72560;BME280;62987;52.382;9.752;2023-07-29T00:56:19;100060.16;;;18.49;100.00
72560;BME280;62987;52.382;9.752;2023-07-29T00:58:46;100047.31;;;18.42;100.00
72560;BME280;62987;52.382;9.752;2023-07-29T01:01:14;100060.66;;;18.43;100.00
72560;BME280;62987;52.382;9.752;2023-07-29T01:03:44;100072.56;;;18.41;100.00
72560;BME280;62987;52.382;9.752;2023-07-29T01:06:18;100070.00;;;18.39;100.00
72560;BME280;62987;52.382;9.752;2023-07-29T01:08:55;100066.00;;;18.33;100.00
72560;BME280;62987;52.382;9.752;2023-07-29T01:11:36;100068.28;;;18.38;100.00
72560;BME280;62987;52.382;9.752;2023-07-29T01:14:19;100049.22;;;18.30;100.00
72560;BME280;62987;52.382;9.752;2023-07-29T01:16:52;100047.00;;;18.35;100.00
72560;BME280;62987;52.382;9.752;2023-07-29T01:19:42;100058.25;;;18.40;100.00
72560;BME280;62987;52.382;9.752;2023-07-29T01:22:10;100055.06;;;18.35;100.00
72560;BME280;62987;52.382;9.752;2023-07-29T01:24:40;100041.59;;;18.35;100.00
72560;BME280;62987;52.382;9.752;2023-07-29T01:27:10;100039.31;;;18.30;100.00
72560;BME280;62987;52.382;9.752;2023-07-29T01:29:40;100041.44;;;18.27;100.00
72560;BME280;62987;52.382;9.752;2023-07-29T01:32:12;100041.78;;;18.22;100.00
72560;BME280;62987;52.382;9.752;2023-07-29T01:34:48;100042.94;;;18.20;100.00
72560;BME280;62987;52.382;9.752;2023-07-29T01:37:22;100047.97;;;18.13;100.00
72560;BME280;62987;52.382;9.752;2023-07-29T01:39:56;100055.66;;;18.18;100.00
72560;BME280;62987;52.382;9.752;2023-07-29T01:42:25;100029.31;;;18.01;100.00
72560;BME280;62987;52.382;9.752;2023-07-29T01:44:56;100057.59;;;18.16;100.00
72560;BME280;62987;52.382;9.752;2023-07-29T01:47:25;100019.50;;;18.00;100.00
72560;BME280;62987;52.382;9.752;2023-07-29T01:49:54;100039.38;;;18.19;100.00
72560;BME280;62987;52.382;9.752;2023-07-29T01:52:22;100044.38;;;18.24;100.00
72560;BME280;62987;52.382;9.752;2023-07-29T01:54:50;100040.81;;;18.23;100.00
72560;BME280;62987;52.382;9.752;2023-07-29T01:57:20;100054.50;;;18.31;100.00
72560;BME280;62987;52.382;9.752;2023-07-29T01:59:48;100037.72;;;18.28;100.00
72560;BME280;62987;52.382;9.752;2023-07-29T02:02:16;100035.38;;;18.34;100.00
72560;BME280;62987;52.382;9.752;2023-07-29T02:04:44;100034.22;;;18.27;100.00
72560;BME280;62987;52.382;9.752;2023-07-29T02:07:18;100039.19;;;18.32;100.00
72560;BME280;62987;52.382;9.752;2023-07-29T02:09:46;100016.47;;;18.25;100.00
72560;BME280;62987;52.382;9.752;2023-07-29T02:12:14;100002.53;;;18.20;100.00
72560;BME280;62987;52.382;9.752;2023-07-29T02:14:43;100028.16;;;18.35;100.00
72560;BME280;62987;52.382;9.752;2023-07-29T02:17:11;100025.97;;;18.29;100.00
72560;BME280;62987;52.382;9.752;2023-07-29T02:19:41;100028.88;;;18.37;100.00
72560;BME280;62987;52.382;9.752;2023-07-29T02:22:12;100008.97;;;18.28;100.00
72560;BME280;62987;52.382;9.752;2023-07-29T02:24:41;100019.53;;;18.41;100.00
72560;BME280;62987;52.382;9.752;2023-07-29T02:27:09;100016.16;;;18.39;100.00
72560;BME280;62987;52.382;9.752;2023-07-29T02:29:37;100009.16;;;18.36;100.00
72560;BME280;62987;52.382;9.752;2023-07-29T02:32:06;100009.91;;;18.38;100.00
72560;BME280;62987;52.382;9.752;2023-07-29T02:34:35;100015.16;;;18.40;100.00
72560;BME280;62987;52.382;9.752;2023-07-29T02:37:03;100023.25;;;18.40;100.00
72560;BME280;62987;52.382;9.752;2023-07-29T02:39:31;100023.94;;;18.42;100.00
72560;BME280;62987;52.382;9.752;2023-07-29T02:41:59;100017.84;;;18.40;100.00
72560;BME280;62987;52.382;9.752;2023-07-29T02:44:28;100017.84;;;18.40;100.00
72560;BME280;62987;52.382;9.752;2023-07-29T02:46:55;100015.28;;;18.38;100.00
72560;BME280;62987;52.382;9.752;2023-07-29T02:49:25;100014.56;;;18.36;100.00
72560;BME280;62987;52.382;9.752;2023-07-29T02:51:53;100013.13;;;18.32;100.00
72560;BME280;62987;52.382;9.752;2023-07-29T02:54:21;100014.97;;;18.32;100.00
72560;BME280;62987;52.382;9.752;2023-07-29T02:56:50;100017.38;;;18.35;100.00
72560;BME280;62987;52.382;9.752;2023-07-29T02:59:18;99995.91;;;18.24;100.00
72560;BME280;62987;52.382;9.752;2023-07-29T03:01:46;100009.69;;;18.30;100.00
72560;BME280;62987;52.382;9.752;2023-07-29T03:04:14;100016.50;;;18.34;100.00
72560;BME280;62987;52.382;9.752;2023-07-29T03:06:44;100018.38;;;18.34;100.00
72560;BME280;62987;52.382;9.752;2023-07-29T03:09:11;100027.16;;;18.36;100.00
72560;BME280;62987;52.382;9.752;2023-07-29T03:11:39;100003.41;;;18.20;100.00
72560;BME280;62987;52.382;9.752;2023-07-29T03:14:07;100023.78;;;18.34;100.00
72560;BME280;62987;52.382;9.752;2023-07-29T03:16:35;100008.38;;;18.25;100.00
72560;BME280;62987;52.382;9.752;2023-07-29T03:19:04;100008.09;;;18.28;100.00
72560;BME280;62987;52.382;9.752;2023-07-29T03:21:33;100020.34;;;18.32;100.00
72560;BME280;62987;52.382;9.752;2023-07-29T03:24:02;100017.53;;;18.33;100.00
72560;BME280;62987;52.382;9.752;2023-07-29T03:26:30;100008.59;;;18.33;100.00
72560;BME280;62987;52.382;9.752;2023-07-29T03:28:58;99985.25;;;18.22;100.00
72560;BME280;62987;52.382;9.752;2023-07-29T03:31:26;99999.38;;;18.35;100.00
72560;BME280;62987;52.382;9.752;2023-07-29T03:33:54;100009.28;;;18.35;100.00
72560;BME280;62987;52.382;9.752;2023-07-29T03:36:22;100003.22;;;18.33;100.00
72560;BME280;62987;52.382;9.752;2023-07-29T03:38:52;100002.06;;;18.35;100.00
72560;BME280;62987;52.382;9.752;2023-07-29T03:41:21;100002.94;;;18.36;100.00
72560;BME280;62987;52.382;9.752;2023-07-29T03:43:49;99994.59;;;18.39;100.00
72560;BME280;62987;52.382;9.752;2023-07-29T03:46:17;100007.34;;;18.37;100.00
72560;BME280;62987;52.382;9.752;2023-07-29T03:48:48;99993.66;;;18.29;100.00
72560;BME280;62987;52.382;9.752;2023-07-29T03:51:16;99989.00;;;18.31;100.00
72560;BME280;62987;52.382;9.752;2023-07-29T03:53:45;99975.78;;;18.28;100.00
72560;BME280;62987;52.382;9.752;2023-07-29T03:56:13;99990.94;;;18.40;100.00
72560;BME280;62987;52.382;9.752;2023-07-29T03:58:42;99991.31;;;18.35;100.00
72560;BME280;62987;52.382;9.752;2023-07-29T04:01:11;99981.50;;;18.34;100.00
72560;BME280;62987;52.382;9.752;2023-07-29T04:03:39;99986.31;;;18.31;100.00
72560;BME280;62987;52.382;9.752;2023-07-29T04:06:08;100000.69;;;18.41;100.00
72560;BME280;62987;52.382;9.752;2023-07-29T04:08:36;99981.91;;;18.30;100.00
72560;BME280;62987;52.382;9.752;2023-07-29T04:11:04;99992.03;;;18.37;100.00
72560;BME280;62987;52.382;9.752;2023-07-29T04:13:32;99980.94;;;18.31;100.00
72560;BME280;62987;52.382;9.752;2023-07-29T04:16:01;99992.88;;;18.38;100.00
72560;BME280;62987;52.382;9.752;2023-07-29T04:18:29;99996.44;;;18.38;100.00
72560;BME280;62987;52.382;9.752;2023-07-29T04:20:57;99993.13;;;18.35;100.00
72560;BME280;62987;52.382;9.752;2023-07-29T04:23:25;99987.91;;;18.33;100.00
72560;BME280;62987;52.382;9.752;2023-07-29T04:25:53;99983.53;;;18.21;100.00
72560;BME280;62987;52.382;9.752;2023-07-29T04:28:21;99979.41;;;18.17;100.00
72560;BME280;62987;52.382;9.752;2023-07-29T04:30:49;99973.13;;;18.07;100.00
72560;BME280;62987;52.382;9.752;2023-07-29T04:33:19;99950.31;;;17.90;100.00
72560;BME280;62987;52.382;9.752;2023-07-29T04:35:47;99959.13;;;17.92;100.00
72560;BME280;62987;52.382;9.752;2023-07-29T04:38:15;99971.31;;;17.96;100.00
72560;BME280;62987;52.382;9.752;2023-07-29T04:40:43;99971.31;;;17.96;100.00
72560;BME280;62987;52.382;9.752;2023-07-29T04:43:11;99973.56;;;17.91;100.00
72560;BME280;62987;52.382;9.752;2023-07-29T04:45:42;99982.34;;;17.93;100.00
72560;BME280;62987;52.382;9.752;2023-07-29T04:48:10;99984.06;;;17.94;100.00
72560;BME280;62987;52.382;9.752;2023-07-29T04:50:40;99984.78;;;17.96;100.00
72560;BME280;62987;52.382;9.752;2023-07-29T04:53:08;99975.72;;;17.97;100.00
72560;BME280;62987;52.382;9.752;2023-07-29T04:55:36;99993.47;;;18.00;100.00
72560;BME280;62987;52.382;9.752;2023-07-29T04:58:04;99976.97;;;17.93;100.00
72560;BME280;62987;52.382;9.752;2023-07-29T05:00:32;100005.53;;;18.06;100.00
72560;BME280;62987;52.382;9.752;2023-07-29T05:03:00;100012.50;;;18.08;100.00
72560;BME280;62987;52.382;9.752;2023-07-29T05:05:29;99993.38;;;17.90;100.00
72560;BME280;62987;52.382;9.752;2023-07-29T05:07:58;99999.09;;;17.97;100.00
72560;BME280;62987;52.382;9.752;2023-07-29T05:10:26;99998.84;;;18.00;100.00
72560;BME280;62987;52.382;9.752;2023-07-29T05:12:54;99982.41;;;18.03;100.00
72560;BME280;62987;52.382;9.752;2023-07-29T05:15:22;99973.75;;;18.00;100.00
72560;BME280;62987;52.382;9.752;2023-07-29T05:17:50;99965.56;;;18.01;100.00
72560;BME280;62987;52.382;9.752;2023-07-29T05:20:18;99963.25;;;17.96;100.00
72560;BME280;62987;52.382;9.752;2023-07-29T05:22:46;99955.69;;;17.90;100.00
72560;BME280;62987;52.382;9.752;2023-07-29T05:25:16;99972.78;;;18.01;100.00
72560;BME280;62987;52.382;9.752;2023-07-29T05:27:44;99967.41;;;18.01;100.00
72560;BME280;62987;52.382;9.752;2023-07-29T05:30:12;99973.50;;;18.03;100.00
72560;BME280;62987;52.382;9.752;2023-07-29T05:32:40;99970.56;;;18.06;100.00
72560;BME280;62987;52.382;9.752;2023-07-29T05:35:08;99965.16;;;18.06;100.00
72560;BME280;62987;52.382;9.752;2023-07-29T05:37:37;99963.78;;;18.11;100.00
72560;BME280;62987;52.382;9.752;2023-07-29T05:40:07;99953.47;;;18.16;100.00
72560;BME280;62987;52.382;9.752;2023-07-29T05:42:37;99929.22;;;18.07;100.00
72560;BME280;62987;52.382;9.752;2023-07-29T05:45:06;99960.66;;;18.27;100.00
72560;BME280;62987;52.382;9.752;2023-07-29T05:47:35;99954.00;;;18.31;100.00
72560;BME280;62987;52.382;9.752;2023-07-29T05:50:03;99963.72;;;18.43;100.00
72560;BME280;62987;52.382;9.752;2023-07-29T05:52:32;99941.28;;;18.33;100.00
72560;BME280;62987;52.382;9.752;2023-07-29T05:55:04;99924.06;;;18.24;100.00
72560;BME280;62987;52.382;9.752;2023-07-29T05:57:32;99963.19;;;18.49;100.00
72560;BME280;62987;52.382;9.752;2023-07-29T06:00:04;99951.22;;;18.42;100.00
72560;BME280;62987;52.382;9.752;2023-07-29T06:02:39;99954.97;;;18.51;100.00
72560;BME280;62987;52.382;9.752;2023-07-29T06:05:10;99957.81;;;18.49;100.00
72560;BME280;62987;52.382;9.752;2023-07-29T06:07:38;99946.72;;;18.43;100.00
72560;BME280;62987;52.382;9.752;2023-07-29T06:10:12;99965.19;;;18.47;100.00
72560;BME280;62987;52.382;9.752;2023-07-29T06:12:41;99977.06;;;18.45;100.00
72560;BME280;62987;52.382;9.752;2023-07-29T06:15:10;99970.81;;;18.44;100.00
72560;BME280;62987;52.382;9.752;2023-07-29T06:17:38;99970.38;;;18.39;100.00
72560;BME280;62987;52.382;9.752;2023-07-29T06:20:08;99967.94;;;18.36;100.00
72560;BME280;62987;52.382;9.752;2023-07-29T06:22:36;99961.84;;;18.34;100.00
72560;BME280;62987;52.382;9.752;2023-07-29T06:25:05;99953.28;;;18.29;100.00
72560;BME280;62987;52.382;9.752;2023-07-29T06:27:33;99945.19;;;18.29;100.00
72560;BME280;62987;52.382;9.752;2023-07-29T06:30:01;99944.03;;;18.22;100.00
72560;BME280;62987;52.382;9.752;2023-07-29T06:32:31;99968.22;;;18.33;100.00
72560;BME280;62987;52.382;9.752;2023-07-29T06:34:59;99968.78;;;18.36;100.00
72560;BME280;62987;52.382;9.752;2023-07-29T06:37:28;99966.53;;;18.42;100.00
72560;BME280;62987;52.382;9.752;2023-07-29T06:39:55;99982.28;;;18.57;100.00
72560;BME280;62987;52.382;9.752;2023-07-29T06:42:23;99984.19;;;18.66;100.00
72560;BME280;62987;52.382;9.752;2023-07-29T06:44:52;99985.78;;;18.79;100.00
72560;BME280;62987;52.382;9.752;2023-07-29T06:47:20;99988.97;;;18.93;100.00
72560;BME280;62987;52.382;9.752;2023-07-29T06:49:49;99987.94;;;19.15;100.00
72560;BME280;62987;52.382;9.752;2023-07-29T06:52:17;99982.03;;;19.31;100.00
72560;BME280;62987;52.382;9.752;2023-07-29T06:54:45;99987.50;;;19.60;100.00
72560;BME280;62987;52.382;9.752;2023-07-29T06:57:13;99980.28;;;19.70;100.00
72560;BME280;62987;52.382;9.752;2023-07-29T06:59:41;99967.88;;;19.58;100.00
72560;BME280;62987;52.382;9.752;2023-07-29T07:02:09;99969.50;;;19.70;100.00
72560;BME280;62987;52.382;9.752;2023-07-29T07:04:37;99975.88;;;19.78;100.00
72560;BME280;62987;52.382;9.752;2023-07-29T07:07:06;99981.28;;;19.78;100.00
72560;BME280;62987;52.382;9.752;2023-07-29T07:09:34;99967.06;;;19.67;100.00
72560;BME280;62987;52.382;9.752;2023-07-29T07:12:02;99971.47;;;19.68;100.00
72560;BME280;62987;52.382;9.752;2023-07-29T07:14:30;99980.41;;;19.78;100.00
72560;BME280;62987;52.382;9.752;2023-07-29T07:16:58;99984.38;;;19.83;100.00
72560;BME280;62987;52.382;9.752;2023-07-29T07:19:26;99982.13;;;19.79;100.00
72560;BME280;62987;52.382;9.752;2023-07-29T07:21:54;99976.16;;;19.75;100.00
72560;BME280;62987;52.382;9.752;2023-07-29T07:24:24;99946.31;;;19.67;100.00
72560;BME280;62987;52.382;9.752;2023-07-29T07:26:52;99967.38;;;19.83;100.00
72560;BME280;62987;52.382;9.752;2023-07-29T07:29:20;99964.78;;;19.91;100.00
72560;BME280;62987;52.382;9.752;2023-07-29T07:31:50;99953.00;;;19.92;100.00
72560;BME280;62987;52.382;9.752;2023-07-29T07:34:19;99944.06;;;19.91;100.00
72560;BME280;62987;52.382;9.752;2023-07-29T07:36:47;99965.66;;;20.01;100.00
72560;BME280;62987;52.382;9.752;2023-07-29T07:39:15;99970.66;;;19.96;100.00
72560;BME280;62987;52.382;9.752;2023-07-29T07:41:44;99965.09;;;19.88;100.00
72560;BME280;62987;52.382;9.752;2023-07-29T07:44:13;99953.72;;;19.94;100.00
72560;BME280;62987;52.382;9.752;2023-07-29T07:46:44;99952.03;;;20.03;100.00
72560;BME280;62987;52.382;9.752;2023-07-29T07:49:12;99958.53;;;20.19;100.00
72560;BME280;62987;52.382;9.752;2023-07-29T07:51:40;99959.13;;;20.32;100.00
72560;BME280;62987;52.382;9.752;2023-07-29T07:54:08;99922.09;;;20.43;100.00
72560;BME280;62987;52.382;9.752;2023-07-29T07:56:36;99940.38;;;20.68;100.00
72560;BME280;62987;52.382;9.752;2023-07-29T07:59:06;99931.44;;;20.67;100.00
72560;BME280;62987;52.382;9.752;2023-07-29T08:01:35;99930.09;;;20.81;100.00
72560;BME280;62987;52.382;9.752;2023-07-29T08:04:04;99937.91;;;20.84;100.00
72560;BME280;62987;52.382;9.752;2023-07-29T08:06:32;99932.97;;;20.80;100.00
72560;BME280;62987;52.382;9.752;2023-07-29T08:09:01;99929.53;;;20.78;100.00
72560;BME280;62987;52.382;9.752;2023-07-29T08:11:29;99953.25;;;20.93;100.00
72560;BME280;62987;52.382;9.752;2023-07-29T08:13:58;99944.22;;;21.02;100.00
72560;BME280;62987;52.382;9.752;2023-07-29T08:16:27;99947.50;;;21.06;100.00
72560;BME280;62987;52.382;9.752;2023-07-29T08:18:55;99932.91;;;20.89;100.00
72560;BME280;62987;52.382;9.752;2023-07-29T08:21:23;99942.34;;;21.12;100.00
72560;BME280;62987;52.382;9.752;2023-07-29T08:23:51;99918.19;;;21.01;100.00
72560;BME280;62987;52.382;9.752;2023-07-29T08:26:19;99944.75;;;21.16;100.00
72560;BME280;62987;52.382;9.752;2023-07-29T08:28:48;99906.38;;;21.02;100.00
72560;BME280;62987;52.382;9.752;2023-07-29T08:31:18;99944.88;;;21.24;100.00
72560;BME280;62987;52.382;9.752;2023-07-29T08:33:48;99948.53;;;21.32;100.00
72560;BME280;62987;52.382;9.752;2023-07-29T08:36:16;99949.34;;;21.33;100.00
72560;BME280;62987;52.382;9.752;2023-07-29T08:38:44;99967.34;;;21.14;100.00
72560;BME280;62987;52.382;9.752;2023-07-29T08:41:14;99962.56;;;21.08;100.00
72560;BME280;62987;52.382;9.752;2023-07-29T08:43:46;99951.53;;;20.92;100.00
72560;BME280;62987;52.382;9.752;2023-07-29T08:46:16;99944.09;;;20.94;100.00
72560;BME280;62987;52.382;9.752;2023-07-29T08:48:43;99939.88;;;20.92;100.00
72560;BME280;62987;52.382;9.752;2023-07-29T08:51:14;99943.13;;;20.95;100.00
72560;BME280;62987;52.382;9.752;2023-07-29T08:53:43;99945.81;;;20.95;100.00
72560;BME280;62987;52.382;9.752;2023-07-29T08:56:11;99913.38;;;20.95;100.00
72560;BME280;62987;52.382;9.752;2023-07-29T08:58:39;99942.63;;;21.19;100.00
72560;BME280;62987;52.382;9.752;2023-07-29T09:01:08;99942.63;;;21.19;100.00
72560;BME280;62987;52.382;9.752;2023-07-29T09:03:36;99905.13;;;20.97;100.00
72560;BME280;62987;52.382;9.752;2023-07-29T09:06:05;99943.44;;;21.20;100.00
72560;BME280;62987;52.382;9.752;2023-07-29T09:08:36;99934.91;;;21.24;100.00
72560;BME280;62987;52.382;9.752;2023-07-29T09:11:04;99943.66;;;21.36;100.00
72560;BME280;62987;52.382;9.752;2023-07-29T09:13:32;99947.59;;;21.41;100.00
72560;BME280;62987;52.382;9.752;2023-07-29T09:16:01;99938.63;;;21.59;100.00
72560;BME280;62987;52.382;9.752;2023-07-29T09:18:30;99928.28;;;21.72;100.00
72560;BME280;62987;52.382;9.752;2023-07-29T09:20:59;99929.53;;;22.13;100.00
72560;BME280;62987;52.382;9.752;2023-07-29T09:23:27;99882.63;;;22.38;100.00
72560;BME280;62987;52.382;9.752;2023-07-29T09:26:02;99912.56;;;22.88;100.00
72560;BME280;62987;52.382;9.752;2023-07-29T09:28:33;99912.31;;;23.07;100.00
72560;BME280;62987;52.382;9.752;2023-07-29T09:31:02;99899.97;;;23.13;100.00
72560;BME280;62987;52.382;9.752;2023-07-29T09:33:32;99913.53;;;23.13;100.00
72560;BME280;62987;52.382;9.752;2023-07-29T09:36:03;99921.13;;;23.09;100.00
72560;BME280;62987;52.382;9.752;2023-07-29T09:38:31;99910.06;;;22.69;100.00
72560;BME280;62987;52.382;9.752;2023-07-29T09:40:59;99906.44;;;22.26;100.00
72560;BME280;62987;52.382;9.752;2023-07-29T09:43:34;99916.53;;;21.99;100.00
72560;BME280;62987;52.382;9.752;2023-07-29T09:46:04;99913.66;;;21.82;100.00
72560;BME280;62987;52.382;9.752;2023-07-29T09:48:34;99922.09;;;21.79;100.00
72560;BME280;62987;52.382;9.752;2023-07-29T09:51:09;99927.66;;;21.42;100.00
72560;BME280;62987;52.382;9.752;2023-07-29T09:53:40;99929.41;;;21.06;100.00
72560;BME280;62987;52.382;9.752;2023-07-29T09:56:13;99923.09;;;20.88;100.00
72560;BME280;62987;52.382;9.752;2023-07-29T09:58:44;99918.59;;;21.06;100.00
72560;BME280;62987;52.382;9.752;2023-07-29T10:01:13;99924.41;;;21.11;100.00
72560;BME280;62987;52.382;9.752;2023-07-29T10:03:42;99911.53;;;21.23;100.00
72560;BME280;62987;52.382;9.752;2023-07-29T10:06:12;99920.34;;;21.70;100.00
72560;BME280;62987;52.382;9.752;2023-07-29T10:08:43;99906.47;;;22.09;100.00
72560;BME280;62987;52.382;9.752;2023-07-29T10:11:11;99906.59;;;22.25;100.00
72560;BME280;62987;52.382;9.752;2023-07-29T10:13:39;99879.25;;;22.44;100.00
72560;BME280;62987;52.382;9.752;2023-07-29T10:16:13;99898.59;;;22.49;100.00
72560;BME280;62987;52.382;9.752;2023-07-29T10:18:42;99906.13;;;22.63;100.00
72560;BME280;62987;52.382;9.752;2023-07-29T10:21:11;99894.66;;;22.69;100.00
72560;BME280;62987;52.382;9.752;2023-07-29T10:23:43;99895.16;;;22.65;100.00
72560;BME280;62987;52.382;9.752;2023-07-29T10:26:16;99886.09;;;22.82;100.00
72560;BME280;62987;52.382;9.752;2023-07-29T10:28:48;99878.72;;;23.00;100.00
72560;BME280;62987;52.382;9.752;2023-07-29T10:31:22;99884.84;;;23.53;100.00
72560;BME280;62987;52.382;9.752;2023-07-29T10:33:51;99869.72;;;23.99;100.00
72560;BME280;62987;52.382;9.752;2023-07-29T10:36:20;99885.84;;;24.00;100.00
72560;BME280;62987;52.382;9.752;2023-07-29T10:38:57;99892.63;;;24.12;100.00
72560;BME280;62987;52.382;9.752;2023-07-29T10:41:54;99873.44;;;24.06;100.00
72560;BME280;62987;52.382;9.752;2023-07-29T10:44:48;99882.09;;;24.42;100.00
72560;BME280;62987;52.382;9.752;2023-07-29T10:47:20;99875.53;;;24.75;100.00
72560;BME280;62987;52.382;9.752;2023-07-29T10:49:51;99877.88;;;24.94;100.00
72560;BME280;62987;52.382;9.752;2023-07-29T10:52:39;99878.63;;;24.64;100.00
72560;BME280;62987;52.382;9.752;2023-07-29T10:55:28;99878.75;;;24.23;100.00
72560;BME280;62987;52.382;9.752;2023-07-29T10:58:05;99864.97;;;23.76;100.00
72560;BME280;62987;52.382;9.752;2023-07-29T11:00:49;99888.53;;;24.49;100.00
72560;BME280;62987;52.382;9.752;2023-07-29T11:03:18;99861.41;;;24.16;100.00
72560;BME280;62987;52.382;9.752;2023-07-29T11:05:50;99875.34;;;23.97;100.00
72560;BME280;62987;52.382;9.752;2023-07-29T11:08:21;99891.28;;;23.92;100.00
72560;BME280;62987;52.382;9.752;2023-07-29T11:11:01;99895.19;;;23.65;100.00
72560;BME280;62987;52.382;9.752;2023-07-29T11:13:31;99890.25;;;23.61;100.00
72560;BME280;62987;52.382;9.752;2023-07-29T11:15:59;99887.88;;;23.49;100.00
72560;BME280;62987;52.382;9.752;2023-07-29T11:18:30;99893.41;;;23.40;100.00
72560;BME280;62987;52.382;9.752;2023-07-29T11:21:01;99875.25;;;23.40;100.00
72560;BME280;62987;52.382;9.752;2023-07-29T11:23:30;99883.13;;;23.60;100.00
72560;BME280;62987;52.382;9.752;2023-07-29T11:26:02;99874.31;;;23.66;100.00
72560;BME280;62987;52.382;9.752;2023-07-29T11:28:30;99882.28;;;24.16;100.00
72560;BME280;62987;52.382;9.752;2023-07-29T11:30:59;99884.91;;;24.64;100.00
72560;BME280;62987;52.382;9.752;2023-07-29T11:33:27;99892.38;;;24.70;100.00
72560;BME280;62987;52.382;9.752;2023-07-29T11:35:56;99881.97;;;24.90;100.00
72560;BME280;62987;52.382;9.752;2023-07-29T11:38:24;99876.91;;;25.41;100.00
72560;BME280;62987;52.382;9.752;2023-07-29T11:40:59;99886.44;;;25.45;100.00
72560;BME280;62987;52.382;9.752;2023-07-29T11:43:29;99890.69;;;25.17;100.00
72560;BME280;62987;52.382;9.752;2023-07-29T11:46:00;99910.66;;;25.40;100.00
72560;BME280;62987;52.382;9.752;2023-07-29T11:48:31;99905.09;;;25.56;100.00
72560;BME280;62987;52.382;9.752;2023-07-29T11:51:02;99917.59;;;25.73;100.00
72560;BME280;62987;52.382;9.752;2023-07-29T11:53:31;99884.78;;;25.90;100.00
72560;BME280;62987;52.382;9.752;2023-07-29T11:56:12;99897.75;;;26.62;95.71
72560;BME280;62987;52.382;9.752;2023-07-29T11:58:41;99910.88;;;27.68;93.29
72560;BME280;62987;52.382;9.752;2023-07-29T12:01:09;99906.63;;;27.30;96.03
72560;BME280;62987;52.382;9.752;2023-07-29T12:03:38;99907.44;;;27.09;100.00
72560;BME280;62987;52.382;9.752;2023-07-29T12:06:14;99916.06;;;26.16;100.00
72560;BME280;62987;52.382;9.752;2023-07-29T12:08:44;99909.75;;;26.53;100.00
72560;BME280;62987;52.382;9.752;2023-07-29T12:11:13;99913.81;;;27.16;94.34
72560;BME280;62987;52.382;9.752;2023-07-29T12:13:42;99918.38;;;26.94;96.68
72560;BME280;62987;52.382;9.752;2023-07-29T12:16:16;99916.72;;;26.41;94.66
72560;BME280;62987;52.382;9.752;2023-07-29T12:18:44;99919.19;;;25.91;100.00
72560;BME280;62987;52.382;9.752;2023-07-29T12:21:17;99921.63;;;25.85;100.00
72560;BME280;62987;52.382;9.752;2023-07-29T12:23:45;99919.81;;;27.41;96.58
72560;BME280;62987;52.382;9.752;2023-07-29T12:26:13;99918.38;;;27.81;88.01
72560;BME280;62987;52.382;9.752;2023-07-29T12:28:46;99908.78;;;28.62;85.21
72560;BME280;62987;52.382;9.752;2023-07-29T12:31:13;99912.03;;;29.54;76.77
72560;BME280;62987;52.382;9.752;2023-07-29T12:33:42;99900.88;;;29.75;76.05
72560;BME280;62987;52.382;9.752;2023-07-29T12:36:10;99906.97;;;29.04;74.49
72560;BME280;62987;52.382;9.752;2023-07-29T12:38:39;99910.56;;;29.58;71.26
72560;BME280;62987;52.382;9.752;2023-07-29T12:41:10;99914.44;;;28.82;69.96
72560;BME280;62987;52.382;9.752;2023-07-29T12:43:46;99896.06;;;27.77;77.15
72560;BME280;62987;52.382;9.752;2023-07-29T12:46:14;99913.81;;;27.16;86.70
72560;BME280;62987;52.382;9.752;2023-07-29T12:48:45;99917.22;;;27.03;95.48
72560;BME280;62987;52.382;9.752;2023-07-29T12:51:13;99910.16;;;26.50;100.00
72560;BME280;62987;52.382;9.752;2023-07-29T12:53:42;99912.97;;;26.19;100.00
72560;BME280;62987;52.382;9.752;2023-07-29T12:56:10;99905.94;;;25.57;100.00
72560;BME280;62987;52.382;9.752;2023-07-29T12:58:38;99901.28;;;25.34;100.00
72560;BME280;62987;52.382;9.752;2023-07-29T13:01:11;99907.31;;;25.22;100.00